Time;durP1;ratioP1;P1;durP2;ratioP2;P2;SDS_P1;SDS_P2;PMS_P1;PMS_P2;Temp;Humidity;BMP_temperature;BMP_pressure;BME280_temperature;BME280_humidity;BME280_pressure;Samples;Min_cycle;Max_cycle;Signal;HPM_P1;HPM_P2
2021/04/19 00:00:54;;;;;;;;;48.00;41.75;;;;;12.15;64.37;101173.56;5015089;28;12331;-81
2021/04/19 00:03:22;;;;;;;;;36.50;35.50;;;;;12.24;63.84;101177.13;5014878;28;11551;-81
2021/04/19 00:06:17;;;;;;;;;35.50;33.25;;;;;12.16;62.86;101166.88;5015097;28;11314;-81
2021/04/19 00:09:13;;;;;;;;;34.25;32.75;;;;;12.06;62.95;101170.00;5014632;28;11656;-80
2021/04/19 00:12:09;;;;;;;;;34.00;30.25;;;;;11.94;63.74;101165.13;5014830;28;11568;-81
2021/04/19 00:14:39;;;;;;;;;35.50;33.75;;;;;12.13;63.25;101162.00;5015239;28;11588;-80
2021/04/19 00:17:34;;;;;;;;;30.50;29.75;;;;;12.18;63.33;101170.13;5013302;28;11279;-82
2021/04/19 00:20:18;;;;;;;;;28.75;28.25;;;;;12.32;62.76;101172.69;5013786;28;11336;-82
2021/04/19 00:23:14;;;;;;;;;31.00;31.00;;;;;12.30;62.41;101177.78;5025350;28;11422;-81
2021/04/19 00:26:09;;;;;;;;;30.25;29.00;;;;;12.29;62.42;101176.16;5023929;28;11277;-80
2021/04/19 00:28:57;;;;;;;;;33.75;29.25;;;;;12.26;61.67;101169.28;5014560;28;11321;-81
2021/04/19 00:31:52;;;;;;;;;25.50;24.75;;;;;12.09;61.92;101174.88;5014206;28;11393;-81
2021/04/19 00:34:20;;;;;;;;;32.75;32.75;;;;;12.19;61.84;101180.91;5013464;28;11217;-79
2021/04/19 00:37:16;;;;;;;;;31.25;31.25;;;;;12.11;61.04;101172.56;5012565;28;11309;-81
2021/04/19 00:40:15;;;;;;;;;28.25;28.25;;;;;12.15;62.25;101174.38;5012792;28;11082;-78
2021/04/19 00:42:56;;;;;;;;;32.00;30.75;;;;;12.15;61.57;101176.34;4995240;28;11420;-80
2021/04/19 00:46:01;;;;;;;;;30.75;29.00;;;;;12.11;61.53;101167.84;4994827;28;11441;-79
2021/04/19 00:48:57;;;;;;;;;34.75;34.50;;;;;11.86;61.95;101172.28;4994402;28;11545;-79
2021/04/19 00:51:55;;;;;;;;;30.75;30.25;;;;;11.88;61.94;101170.00;4994266;28;11333;-79
2021/04/19 00:54:51;;;;;;;;;32.50;30.75;;;;;11.84;62.11;101174.59;5027664;28;11411;-78
2021/04/19 00:57:47;;;;;;;;;35.75;34.50;;;;;11.75;62.43;101170.97;5033742;28;11544;-79
2021/04/19 01:00:43;;;;;;;;;31.75;31.50;;;;;11.60;62.96;101169.53;5033297;28;11368;-79
2021/04/19 01:03:40;;;;;;;;;34.75;32.50;;;;;11.53;63.12;101171.97;5033512;28;11610;-79
2021/04/19 01:06:36;;;;;;;;;34.50;34.00;;;;;11.49;63.29;101168.19;5033278;28;11302;-79
2021/04/19 01:09:31;;;;;;;;;31.75;31.75;;;;;11.42;63.62;101156.78;5033400;28;11528;-79
2021/04/19 01:12:27;;;;;;;;;27.50;26.50;;;;;11.43;63.38;101150.13;5014469;28;11537;-79
2021/04/19 01:15:22;;;;;;;;;32.25;32.25;;;;;11.20;64.26;101146.69;5013642;28;11559;-79
2021/04/19 01:18:18;;;;;;;;;32.50;32.00;;;;;11.32;64.30;101152.41;5013463;28;11526;-79
2021/04/19 01:21:14;;;;;;;;;35.00;34.50;;;;;11.24;64.65;101147.66;5012634;28;11393;-79
2021/04/19 01:24:00;;;;;;;;;36.75;35.50;;;;;11.20;64.32;101149.47;5013781;28;11694;-79
2021/04/19 01:26:55;;;;;;;;;33.50;33.25;;;;;11.26;64.36;101148.16;5024475;28;11687;-79
2021/04/19 01:29:51;;;;;;;;;34.50;34.00;;;;;10.89;65.48;101154.25;5013320;28;11577;-79
2021/04/19 01:32:47;;;;;;;;;35.00;35.00;;;;;10.73;66.14;101151.13;5013056;28;11680;-78
2021/04/19 01:35:43;;;;;;;;;37.50;35.50;;;;;10.89;65.74;101149.56;5013166;28;11598;-79
2021/04/19 01:38:39;;;;;;;;;33.75;32.25;;;;;10.83;65.69;101148.09;5013052;28;11559;-79
2021/04/19 01:41:34;;;;;;;;;34.00;31.50;;;;;10.78;66.06;101131.63;5011091;28;11658;-78
2021/04/19 01:44:32;;;;;;;;;29.75;29.50;;;;;10.82;66.58;101132.63;5031121;28;12408;-79
2021/04/19 01:47:28;;;;;;;;;32.00;31.50;;;;;10.68;66.53;101137.47;5031320;28;11525;-79
2021/04/19 01:50:26;;;;;;;;;33.75;33.75;;;;;10.79;66.41;101147.91;5027677;28;11617;-79
2021/04/19 01:53:22;;;;;;;;;34.75;33.75;;;;;10.78;66.54;101151.81;5012721;28;12371;-79
2021/04/19 01:56:18;;;;;;;;;35.25;35.25;;;;;10.69;66.74;101148.19;5012759;28;12411;-79
2021/04/19 01:59:14;;;;;;;;;33.25;31.00;;;;;10.61;67.57;101150.94;5011256;28;11541;-79
2021/04/19 02:02:07;;;;;;;;;44.25;38.50;;;;;10.70;67.06;101151.78;5012926;28;11537;-80
2021/04/19 02:05:23;;;;;;;;;30.75;30.50;;;;;10.70;66.94;101141.53;5012853;28;11665;-79
2021/04/19 02:08:44;;;;;;;;;45.00;39.00;;;;;10.61;67.45;101143.47;5011172;28;11562;-78
2021/04/19 02:11:40;;;;;;;;;43.00;33.75;;;;;10.63;67.69;101143.13;5010256;28;11617;-78
2021/04/19 02:14:50;;;;;;;;;41.50;38.25;;;;;10.76;67.49;101148.56;5012736;28;11629;-79
2021/04/19 02:18:07;;;;;;;;;68.00;55.50;;;;;10.82;65.68;101150.03;5012673;28;11623;-79
2021/04/19 02:21:01;;;;;;;;;80.00;63.25;;;;;10.88;65.75;101147.09;5007632;28;11678;-79
2021/04/19 02:24:02;;;;;;;;;76.50;61.00;;;;;10.86;66.00;101153.78;4991364;28;11598;-79
2021/04/19 02:26:35;;;;;;;;;78.25;60.00;;;;;10.92;65.92;101161.94;5000142;28;11621;-79
2021/04/19 02:29:09;;;;;;;;;70.75;57.50;;;;;10.95;65.59;101158.53;5011897;28;11595;-79
2021/04/19 02:31:41;;;;;;;;;73.75;56.75;;;;;10.98;65.58;101153.16;5013266;28;11609;-79
2021/04/19 02:34:39;;;;;;;;;70.00;58.00;;;;;10.93;65.50;101152.50;5016809;28;11612;-79
2021/04/19 02:37:37;;;;;;;;;71.50;55.00;;;;;10.90;65.69;101150.38;5027282;28;11601;-77
2021/04/19 02:40:35;;;;;;;;;68.50;55.00;;;;;10.69;66.34;101153.72;5016320;28;11632;-78
2021/04/19 02:43:21;;;;;;;;;58.75;50.00;;;;;10.98;65.81;101152.34;5016564;28;11642;-79
2021/04/19 02:45:59;;;;;;;;;66.25;54.25;;;;;10.43;67.42;101152.81;5031179;28;11678;-78
2021/04/19 02:48:57;;;;;;;;;65.25;53.50;;;;;10.64;66.91;101144.75;5016316;28;11626;-78
2021/04/19 02:51:55;;;;;;;;;66.75;54.75;;;;;10.73;66.59;101143.63;5016115;28;11617;-79
2021/04/19 02:54:52;;;;;;;;;70.50;57.00;;;;;10.58;67.26;101144.06;5014592;28;12427;-77
2021/04/19 02:57:51;;;;;;;;;68.50;56.00;;;;;10.76;66.52;101144.97;5016129;28;12384;-78
2021/04/19 03:00:48;;;;;;;;;71.75;58.75;;;;;10.76;66.24;101151.31;5016166;28;12411;-78
2021/04/19 03:03:46;;;;;;;;;69.75;57.50;;;;;10.76;66.02;101153.28;5014504;28;11622;-77
2021/04/19 03:06:57;;;;;;;;;72.50;57.00;;;;;10.87;65.84;101160.13;5015699;28;11607;-78
2021/04/19 03:10:03;;;;;;;;;74.50;59.25;;;;;10.98;65.71;101169.78;5014225;28;11598;-78
2021/04/19 03:13:01;;;;;;;;;69.25;56.00;;;;;10.94;65.47;101166.00;5014181;28;11658;-79
2021/04/19 03:15:59;;;;;;;;;66.50;54.25;;;;;10.85;66.03;101170.72;5015705;28;11607;-79
2021/04/19 03:18:59;;;;;;;;;59.00;50.00;;;;;10.87;65.92;101165.66;5014490;28;11634;-78
2021/04/19 03:21:58;;;;;;;;;63.00;52.00;;;;;10.93;66.16;101163.56;5015526;28;11618;-77
2021/04/19 03:24:43;;;;;;;;;64.50;52.00;;;;;10.80;66.42;101157.81;5038449;28;11626;-79
2021/04/19 03:27:43;;;;;;;;;55.75;47.75;;;;;10.89;66.31;101165.34;4996157;28;11609;-79
2021/04/19 03:30:40;;;;;;;;;57.75;49.50;;;;;10.93;66.17;101160.81;5008487;28;11611;-79
2021/04/19 03:33:09;;;;;;;;;59.50;50.25;;;;;11.01;66.18;101165.53;5015629;28;12389;-78
2021/04/19 03:35:46;;;;;;;;;60.25;50.25;;;;;11.04;66.01;101162.97;5015614;28;12311;-79
2021/04/19 03:38:44;;;;;;;;;58.50;49.75;;;;;11.14;66.01;101168.19;5013720;28;11583;-78
2021/04/19 03:41:44;;;;;;;;;62.00;52.00;;;;;11.22;65.58;101169.34;5013000;28;11620;-79
2021/04/19 03:44:41;;;;;;;;;55.00;46.25;;;;;11.23;65.99;101159.88;5012483;28;12385;-80
2021/04/19 03:47:39;;;;;;;;;60.00;50.75;;;;;11.31;65.22;101159.06;5013742;28;11603;-79
2021/04/19 03:50:43;;;;;;;;;62.50;51.50;;;;;11.29;65.57;101163.31;5015095;28;11626;-80
2021/04/19 03:53:41;;;;;;;;;56.00;47.00;;;;;11.20;66.11;101162.50;5014983;28;11606;-79
2021/04/19 03:56:39;;;;;;;;;53.25;46.00;;;;;11.34;65.64;101160.38;5014582;28;11654;-79
2021/04/19 03:59:41;;;;;;;;;65.75;54.00;;;;;11.50;65.17;101163.47;5014891;28;11586;-80
2021/04/19 04:02:39;;;;;;;;;73.25;58.50;;;;;11.45;65.18;101161.69;5025104;28;11617;-79
2021/04/19 04:05:08;;;;;;;;;78.00;61.25;;;;;11.56;65.50;101159.41;5034009;28;11598;-79
2021/04/19 04:08:06;;;;;;;;;69.00;54.50;;;;;11.67;65.39;101174.56;5014685;28;11628;-78
2021/04/19 04:11:02;;;;;;;;;73.00;58.25;;;;;11.56;65.19;101168.53;5014813;28;11610;-78
2021/04/19 04:13:47;;;;;;;;;81.00;63.25;;;;;11.59;65.12;101172.63;5013940;28;11612;-79
2021/04/19 04:16:43;;;;;;;;;72.25;58.75;;;;;11.69;64.72;101170.31;5025887;28;11620;-79
2021/04/19 04:19:39;;;;;;;;;68.50;57.50;;;;;11.78;64.53;101175.03;5014565;28;11093;-80
2021/04/19 04:22:35;;;;;;;;;73.00;59.50;;;;;11.80;64.25;101176.38;5014508;28;11823;-79
2021/04/19 04:25:05;;;;;;;;;71.25;58.50;;;;;11.77;64.70;101178.97;4997596;28;11622;-79
2021/04/19 04:28:04;;;;;;;;;73.00;60.00;;;;;11.72;64.27;101174.38;5015505;28;11622;-80
2021/04/19 04:30:35;;;;;;;;;74.25;60.00;;;;;11.75;64.38;101175.72;5013720;28;11666;-80
2021/04/19 04:33:30;;;;;;;;;71.25;59.00;;;;;11.79;64.11;101174.72;5013115;28;11650;-79
2021/04/19 04:36:26;;;;;;;;;73.75;59.75;;;;;11.94;63.04;101179.78;4994503;28;12370;-77
2021/04/19 04:39:22;;;;;;;;;78.75;61.50;;;;;11.91;63.55;101169.38;4994785;28;11832;-78
2021/04/19 04:41:49;;;;;;;;;65.00;53.50;;;;;11.88;65.23;101166.41;4996721;28;11752;-78
2021/04/19 04:44:35;;;;;;;;;69.00;55.50;;;;;11.81;64.55;101166.09;4995064;28;11659;-76
2021/04/19 04:47:10;;;;;;;;;73.75;58.50;;;;;11.79;64.30;101163.63;4994876;28;11665;-77
2021/04/19 04:50:12;;;;;;;;;76.00;59.75;;;;;11.93;63.98;101180.13;4994479;28;12480;-77
2021/04/19 04:53:27;;;;;;;;;72.75;58.00;;;;;12.07;65.08;101182.72;5002941;28;11699;-77
2021/04/19 04:56:25;;;;;;;;;67.75;54.75;;;;;12.11;65.42;101176.16;5033340;28;11601;-78
2021/04/19 04:58:54;;;;;;;;;73.00;56.25;;;;;12.07;65.41;101179.94;5034281;28;11607;-77
2021/04/19 05:01:51;;;;;;;;;71.50;55.25;;;;;12.07;65.38;101177.16;5033515;28;11636;-77
2021/04/19 05:04:49;;;;;;;;;60.75;51.25;;;;;12.20;65.41;101181.72;5031971;28;11604;-78
2021/04/19 05:07:46;;;;;;;;;71.75;56.25;;;;;12.13;65.71;101171.13;5033513;28;11691;-75
2021/04/19 05:10:42;;;;;;;;;63.50;53.00;;;;;12.12;65.62;101177.00;5033160;28;11585;-77
2021/04/19 05:13:38;;;;;;;;;65.50;53.75;;;;;12.26;64.81;101177.59;5020122;28;11614;-78
2021/04/19 05:16:34;;;;;;;;;64.00;54.00;;;;;12.30;65.09;101175.00;5013728;28;11753;-78
2021/04/19 05:19:29;;;;;;;;;65.25;53.50;;;;;12.18;65.15;101175.66;5013480;28;11606;-79
2021/04/19 05:21:57;;;;;;;;;69.00;55.25;;;;;12.33;65.43;101177.09;5013288;28;11632;-78
2021/04/19 05:24:38;;;;;;;;;65.50;51.50;;;;;12.34;64.89;101178.72;5013742;28;11624;-78
2021/04/19 05:27:07;;;;;;;;;70.00;55.00;;;;;12.52;64.68;101172.78;5029063;28;11644;-78
2021/04/19 05:30:03;;;;;;;;;63.00;51.50;;;;;12.32;64.54;101170.72;5023767;28;11631;-78
2021/04/19 05:32:45;;;;;;;;;62.25;52.25;;;;;12.59;64.37;101177.03;5026749;28;11621;-77
2021/04/19 05:35:41;;;;;;;;;68.00;54.25;;;;;12.69;63.67;101171.09;5027700;28;11686;-79
2021/04/19 05:38:38;;;;;;;;;69.25;55.50;;;;;12.94;63.15;101174.88;5031547;28;11693;-77
2021/04/19 05:41:07;;;;;;;;;67.00;55.25;;;;;12.98;63.41;101170.28;5014848;28;11615;-77
2021/04/19 05:44:03;;;;;;;;;63.50;53.00;;;;;13.12;63.52;101172.84;5012832;28;11636;-78
2021/04/19 05:46:58;;;;;;;;;69.25;56.00;;;;;13.17;62.69;101173.44;5012568;28;11624;-77
2021/04/19 05:49:26;;;;;;;;;70.25;57.75;;;;;13.25;62.35;101174.56;5015258;28;11623;-76
2021/04/19 05:52:16;;;;;;;;;72.50;57.50;;;;;13.32;61.85;101177.63;5013101;28;11654;-77
2021/04/19 05:54:48;;;;;;;;;69.25;55.75;;;;;13.40;61.72;101175.94;5019818;28;11613;-76
2021/04/19 05:58:01;;;;;;;;;73.25;58.00;;;;;13.29;61.40;101179.09;5032386;28;11620;-78
2021/04/19 06:01:09;;;;;;;;;80.50;60.00;;;;;13.25;61.60;101183.69;5030061;28;11793;-78
2021/04/19 06:04:13;;;;;;;;;69.75;57.25;;;;;13.01;62.36;101172.38;4992792;28;11633;-78
2021/04/19 06:07:13;;;;;;;;;75.25;60.75;;;;;13.18;61.64;101174.25;4992717;28;11718;-78
2021/04/19 06:10:17;;;;;;;;;61.75;51.75;;;;;13.27;62.45;101178.66;4992694;28;11709;-77
2021/04/19 06:13:17;;;;;;;;;63.50;52.00;;;;;13.27;62.63;101181.41;5011301;28;11728;-78
2021/04/19 06:16:14;;;;;;;;;59.50;50.25;;;;;13.34;63.38;101184.47;5024484;28;11619;-78
2021/04/19 06:19:13;;;;;;;;;69.75;55.75;;;;;13.43;62.79;101189.97;5012109;28;11702;-77
2021/04/19 06:21:43;;;;;;;;;64.50;52.75;;;;;13.70;61.28;101185.81;5012587;28;11721;-77
2021/04/19 06:24:42;;;;;;;;;71.50;56.75;;;;;13.67;60.59;101194.03;5012356;28;11619;-77
2021/04/19 06:27:39;;;;;;;;;65.25;54.25;;;;;13.90;60.45;101179.44;5012293;28;12392;-76
2021/04/19 06:30:20;;;;;;;;;63.75;53.00;;;;;14.09;60.29;101180.88;5012433;28;11750;-77
2021/04/19 06:32:49;;;;;;;;;73.50;58.50;;;;;13.94;61.38;101174.00;5011368;28;11616;-78
2021/04/19 06:35:18;;;;;;;;;73.25;57.75;;;;;14.17;60.50;101186.34;5012567;28;11710;-78
2021/04/19 06:38:09;;;;;;;;;72.25;58.25;;;;;14.40;59.19;101185.94;5010803;28;11650;-78
2021/04/19 06:41:05;;;;;;;;;71.00;56.25;;;;;14.47;59.52;101180.66;5012226;28;11615;-77
2021/04/19 06:44:00;;;;;;;;;70.00;55.50;;;;;14.54;59.18;101177.31;5015777;28;11537;-79
2021/04/19 06:46:58;;;;;;;;;71.75;57.25;;;;;14.71;59.04;101179.88;5011627;28;11603;-77
2021/04/19 06:49:57;;;;;;;;;68.00;55.25;;;;;14.89;58.55;101177.69;5010568;28;11553;-77
2021/04/19 06:52:53;;;;;;;;;75.25;58.25;;;;;14.84;58.13;101183.47;5011930;28;11622;-78
2021/04/19 06:55:21;;;;;;;;;75.25;60.75;;;;;14.80;58.32;101180.59;5012398;28;11599;-79
2021/04/19 06:58:18;;;;;;;;;76.25;59.25;;;;;14.79;59.00;101187.28;5012040;28;11611;-78
2021/04/19 07:01:18;;;;;;;;;72.00;57.50;;;;;14.76;58.85;101184.41;5027847;28;11598;-76
2021/04/19 07:04:20;;;;;;;;;73.50;58.00;;;;;14.76;58.48;101174.09;5024692;28;11636;-78
2021/04/19 07:06:49;;;;;;;;;74.50;58.75;;;;;14.95;58.97;101168.75;5012604;28;11546;-77
2021/04/19 07:09:48;;;;;;;;;74.75;59.00;;;;;14.92;58.95;101166.66;5022399;28;11545;-78
2021/04/19 07:12:22;;;;;;;;;70.00;55.50;;;;;15.06;58.75;101165.50;5011931;28;12339;-78
2021/04/19 07:15:00;;;;;;;;;63.00;52.00;;;;;15.06;59.05;101163.50;5012518;28;11521;-77
2021/04/19 07:17:56;;;;;;;;;63.00;50.75;;;;;15.11;58.83;101157.72;5005834;28;11550;-78
2021/04/19 07:20:27;;;;;;;;;68.25;52.00;;;;;15.28;58.38;101157.44;5025241;28;12376;-75
2021/04/19 07:23:23;;;;;;;;;74.75;56.25;;;;;15.33;58.72;101164.75;5030851;28;11635;-78
2021/04/19 07:25:50;;;;;;;;;68.25;54.75;;;;;15.49;58.26;101170.41;5013467;28;11588;-77
2021/04/19 07:28:18;;;;;;;;;68.50;53.75;;;;;15.53;58.22;101168.53;4999853;28;11543;-78
2021/04/19 07:30:58;;;;;;;;;68.00;55.00;;;;;15.75;56.68;101161.63;5021067;28;11632;-79
2021/04/19 07:33:28;;;;;;;;;66.25;53.75;;;;;15.93;55.91;101164.94;4995712;28;11586;-77
2021/04/19 07:36:27;;;;;;;;;76.50;59.00;;;;;16.03;55.92;101164.44;4995446;28;11549;-79
2021/04/19 07:39:25;;;;;;;;;73.00;58.25;;;;;16.10;55.57;101167.38;5001647;28;11647;-78
2021/04/19 07:42:20;;;;;;;;;78.00;65.75;;;;;16.15;55.85;101160.75;5027105;28;11574;-78
2021/04/19 07:45:07;;;;;;;;;84.50;72.25;;;;;16.19;55.54;101156.09;5034885;28;11611;-78
2021/04/19 07:47:43;;;;;;;;;99.50;92.25;;;;;16.21;54.70;101156.53;5034188;28;11625;-78
2021/04/19 07:50:23;;;;;;;;;132.25;111.25;;;;;16.30;54.05;101160.78;5021379;28;11822;-78
2021/04/19 07:53:18;;;;;;;;;180.33;149.67;;;;;16.08;52.95;101158.56;5026250;28;11710;-78
2021/04/19 07:56:18;;;;;;;;;199.67;163.00;;;;;16.26;54.28;101151.50;5014430;28;8848;-77
2021/04/19 07:59:26;;;;;;;;;184.33;154.00;;;;;16.36;54.63;101150.97;5043176;28;8841;-78
2021/04/19 08:02:21;;;;;;;;;204.33;163.00;;;;;16.40;54.26;101145.47;5034760;28;8853;-77
2021/04/19 08:05:29;;;;;;;;;185.67;154.00;;;;;16.34;53.76;101158.91;5020140;28;9000;-78
2021/04/19 08:08:30;;;;;;;;;183.00;151.00;;;;;16.31;53.76;101151.22;5016202;28;8836;-79
2021/04/19 08:11:08;;;;;;;;;177.67;148.33;;;;;16.45;53.09;101158.34;5014879;28;8841;-78
2021/04/19 08:14:05;;;;;;;;;177.67;134.00;;;;;16.51;53.61;101152.16;5015289;28;8874;-79
2021/04/19 08:17:19;;;;;;;;;181.67;142.33;;;;;16.66;53.13;101156.13;5653688;23;8824;-78
2021/04/19 08:19:49;;;;;;;;;117.00;104.75;;;;;16.48;53.84;101155.66;5039800;28;8859;-77
2021/04/19 08:22:27;;;;;;;;;155.00;124.67;;;;;16.57;52.97;101152.69;5051122;28;11646;-76
2021/04/19 08:25:19;;;;;;;;;167.33;143.67;;;;;16.47;52.49;101156.00;5052772;28;8927;-77
2021/04/19 08:28:07;;;;;;;;;143.33;118.67;;;;;16.49;51.71;101153.69;5065236;28;9663;-80
2021/04/19 08:30:35;;;;;;;;;143.33;125.33;;;;;16.49;50.94;101153.69;5045105;28;11690;-78
2021/04/19 08:33:04;;;;;;;;;149.67;123.67;;;;;16.56;51.35;101156.63;5056114;28;11666;-77
2021/04/19 08:35:33;;;;;;;;;122.75;114.00;;;;;16.54;50.28;101162.59;5026975;28;8841;-78
2021/04/19 08:38:02;;;;;;;;;125.67;116.33;;;;;16.58;51.16;101162.69;5035555;28;11664;-79
2021/04/19 08:40:58;;;;;;;;;126.75;109.50;;;;;16.43;50.21;101155.94;5020108;28;11727;-77
2021/04/19 08:43:55;;;;;;;;;135.67;120.67;;;;;16.25;51.22;101147.06;5024692;28;11681;-77
2021/04/19 08:46:51;;;;;;;;;143.00;127.00;;;;;16.11;50.26;101153.09;5004498;28;8883;-78
2021/04/19 08:49:47;;;;;;;;;127.33;104.67;;;;;16.56;49.93;101154.69;4988835;28;8857;-78
2021/04/19 08:53:23;;;;;;;;;137.75;111.75;;;;;16.75;50.06;101153.16;5016752;28;8856;-79
2021/04/19 08:56:19;;;;;;;;;119.50;100.00;;;;;16.83;49.18;101143.78;5016500;28;11853;-76
2021/04/19 08:59:16;;;;;;;;;108.50;91.25;;;;;17.16;48.59;101148.94;5018191;28;12547;-77
2021/04/19 09:02:15;;;;;;;;;86.25;77.00;;;;;17.13;46.46;101144.91;5033501;28;11690;-78
2021/04/19 09:05:14;;;;;;;;;107.25;90.25;;;;;17.31;47.20;101145.28;5020161;28;11646;-78
2021/04/19 09:08:12;;;;;;;;;94.50;84.75;;;;;17.41;47.51;101147.53;5035277;28;11662;-78
2021/04/19 09:11:27;;;;;;;;;147.25;116.00;;;;;17.65;45.02;101151.22;5032787;28;11636;-78
2021/04/19 09:14:34;;;;;;;;;137.50;100.00;;;;;17.87;44.83;101144.91;5020840;28;12437;-75
2021/04/19 09:17:30;;;;;;;;;99.75;84.00;;;;;17.92;42.31;101150.19;5032531;28;11685;-78
2021/04/19 09:20:33;;;;;;;;;82.75;72.75;;;;;17.85;42.64;101152.84;5033273;28;11728;-79
2021/04/19 09:23:32;;;;;;;;;70.25;57.00;;;;;17.82;41.27;101153.59;5014899;28;11760;-78
2021/04/19 09:26:49;;;;;;;;;57.25;46.50;;;;;17.56;41.16;101151.44;5021222;28;11114;-78
2021/04/19 09:29:45;;;;;;;;;64.75;50.75;;;;;17.68;41.10;101150.47;5021638;28;10830;-77
2021/04/19 09:32:43;;;;;;;;;54.25;45.50;;;;;17.61;41.26;101151.13;5016618;28;10545;-77
2021/04/19 09:35:39;;;;;;;;;52.25;42.75;;;;;17.57;41.76;101150.25;5023511;28;10239;-78
2021/04/19 09:38:37;;;;;;;;;47.50;40.50;;;;;17.76;40.55;101144.69;5022114;28;9990;-78
2021/04/19 09:41:48;;;;;;;;;49.50;41.25;;;;;18.06;41.27;101142.06;5027765;28;10245;-79
2021/04/19 09:44:53;;;;;;;;;47.00;38.50;;;;;18.14;40.86;101147.81;5023425;28;9830;-78
2021/04/19 09:47:50;;;;;;;;;43.00;37.75;;;;;18.32;40.40;101151.75;5008382;28;9748;-77
2021/04/19 09:50:46;;;;;;;;;40.75;34.50;;;;;18.39;41.33;101154.66;5029175;28;9642;-77
2021/04/19 09:54:04;;;;;;;;;36.33;33.00;;;;;18.34;41.85;101155.81;4999255;28;9575;-77
2021/04/19 09:57:10;;;;;;;;;33.00;31.00;;;;;18.62;42.59;101155.47;5012591;28;9330;-78
2021/04/19 10:00:08;;;;;;;;;41.67;35.67;;;;;18.65;41.17;101155.94;5021016;28;9000;-78
2021/04/19 10:03:04;;;;;;;;;26.50;26.25;;;;;18.84;41.61;101153.88;5034168;28;9193;-78
2021/04/19 10:06:20;;;;;;;;;30.33;30.33;;;;;19.11;39.35;101160.31;5031867;28;8907;-77
2021/04/19 10:09:23;;;;;;;;;35.67;32.00;;;;;19.28;40.72;101155.31;5031925;28;8963;-78
2021/04/19 10:11:55;;;;;;;;;31.00;30.00;;;;;19.11;38.68;101162.31;5013663;28;9032;-78
2021/04/19 10:14:50;;;;;;;;;26.25;26.25;;;;;19.27;38.73;101160.13;5031892;28;8932;-78
2021/04/19 10:17:47;;;;;;;;;19.25;19.00;;;;;19.13;36.95;101160.72;5031919;28;8976;-78
2021/04/19 10:20:42;;;;;;;;;20.75;20.75;;;;;19.61;36.56;101166.63;5021119;28;8873;-77
2021/04/19 10:23:43;;;;;;;;;18.00;18.00;;;;;20.16;37.55;101166.88;5032702;28;8931;-77
2021/04/19 10:26:39;;;;;;;;;15.75;15.75;;;;;20.51;34.69;101160.03;5031824;28;8866;-77
2021/04/19 10:29:37;;;;;;;;;18.00;18.00;;;;;21.14;35.31;101167.34;5034168;28;8917;-77
2021/04/19 10:32:36;;;;;;;;;17.25;17.25;;;;;20.87;34.31;101177.22;5010486;28;8851;-78
2021/04/19 10:35:37;;;;;;;;;16.75;16.75;;;;;20.66;34.11;101172.22;5034643;28;8843;-77
2021/04/19 10:38:32;;;;;;;;;17.75;17.75;;;;;20.26;35.44;101177.44;5014848;28;8991;-77
2021/04/19 10:41:38;;;;;;;;;18.75;18.75;;;;;20.37;35.20;101177.53;5017415;28;8843;-79
2021/04/19 10:44:39;;;;;;;;;19.00;19.00;;;;;20.03;35.19;101175.97;5025072;28;8854;-78
2021/04/19 10:47:35;;;;;;;;;19.00;18.25;;;;;19.82;36.07;101179.31;5021304;28;8877;-76
2021/04/19 10:50:31;;;;;;;;;13.50;13.50;;;;;19.82;34.87;101179.31;5021602;28;9552;-79
2021/04/19 10:53:39;;;;;;;;;12.00;12.00;;;;;19.45;34.20;101177.19;5011773;28;8915;-79
2021/04/19 10:56:38;;;;;;;;;17.75;17.25;;;;;19.20;35.85;101178.84;5025851;28;8912;-80
2021/04/19 10:59:36;;;;;;;;;12.75;12.75;;;;;19.20;35.20;101174.03;5025534;28;8834;-80
2021/04/19 11:02:33;;;;;;;;;26.75;26.25;;;;;19.23;35.12;101167.66;5023295;28;8846;-79
2021/04/19 11:05:28;;;;;;;;;11.50;11.50;;;;;18.95;34.88;101179.28;5028172;28;8977;-79
2021/04/19 11:08:46;;;;;;;;;12.00;12.00;;;;;18.54;34.50;101170.53;5007934;28;8878;-78
2021/04/19 11:11:43;;;;;;;;;11.00;11.00;;;;;18.65;35.27;101172.75;5026369;28;8835;-78
2021/04/19 11:14:39;;;;;;;;;8.00;8.00;;;;;18.50;35.03;101177.28;5026809;28;9008;-79
2021/04/19 11:17:36;;;;;;;;;11.00;11.00;;;;;18.48;35.66;101183.25;5013845;28;8937;-78
2021/04/19 11:20:32;;;;;;;;;13.00;13.00;;;;;18.71;35.21;101179.66;5027172;28;8845;-79
2021/04/19 11:23:29;;;;;;;;;17.50;17.50;;;;;18.26;38.11;101181.25;5020206;28;8959;-78
2021/04/19 11:26:31;;;;;;;;;16.75;16.25;;;;;18.20;37.74;101177.13;5026671;28;8866;-78
2021/04/19 11:29:43;;;;;;;;;19.50;19.50;;;;;18.27;37.45;101174.47;5013827;28;8959;-79
2021/04/19 11:32:39;;;;;;;;;17.75;17.25;;;;;18.12;38.70;101167.78;5023493;28;8847;-78
2021/04/19 11:35:40;;;;;;;;;14.00;14.00;;;;;17.90;38.67;101160.94;5026887;28;8827;-77
2021/04/19 11:38:37;;;;;;;;;17.00;17.00;;;;;18.03;38.69;101156.81;5023519;28;8827;-78
2021/04/19 11:41:36;;;;;;;;;20.00;19.75;;;;;18.10;39.33;101155.34;5027690;28;8845;-78
2021/04/19 11:44:58;;;;;;;;;16.50;16.50;;;;;18.21;39.72;101157.16;5020874;28;8853;-77
2021/04/19 11:47:56;;;;;;;;;20.25;20.25;;;;;18.31;39.16;101162.13;5015409;28;8860;-79
2021/04/19 11:54:15;;;;;;;;;16.75;16.75;;;;;18.44;38.78;101156.34;5028858;28;8885;-77
2021/04/19 11:57:11;;;;;;;;;21.00;20.50;;;;;18.30;38.13;101154.09;5020859;28;8877;-78
2021/04/19 12:00:13;;;;;;;;;14.75;14.75;;;;;18.46;38.19;101142.78;5020991;28;8851;-80
2021/04/19 12:03:08;;;;;;;;;12.25;12.25;;;;;18.43;38.97;101138.75;5034013;28;8968;-78
2021/04/19 12:06:05;;;;;;;;;22.25;22.25;;;;;18.32;39.85;101146.94;5033521;28;8830;-78
2021/04/19 12:09:02;;;;;;;;;23.25;22.75;;;;;18.60;39.81;101141.03;5026578;28;9485;-78
2021/04/19 12:11:58;;;;;;;;;24.00;24.00;;;;;18.64;40.83;101135.50;5020694;28;8846;-77
2021/04/19 12:14:54;;;;;;;;;25.75;25.75;;;;;18.53;40.07;101126.09;5020646;28;8941;-78
2021/04/19 12:17:50;;;;;;;;;23.50;23.50;;;;;18.72;39.85;101130.88;5032199;28;8935;-75
2021/04/19 12:20:46;;;;;;;;;20.00;19.25;;;;;18.69;38.97;101129.59;5033042;28;8897;-78
2021/04/19 12:23:41;;;;;;;;;20.75;20.75;;;;;18.80;38.96;101124.19;5034324;28;8850;-78
2021/04/19 12:26:38;;;;;;;;;20.25;20.25;;;;;18.94;39.01;101137.59;5024683;28;8876;-78
2021/04/19 12:29:34;;;;;;;;;22.75;22.75;;;;;18.91;39.84;101144.75;5000978;28;8834;-79
2021/04/19 12:32:29;;;;;;;;;23.75;23.50;;;;;18.84;39.98;101136.25;5014654;28;8857;-77
2021/04/19 12:35:27;;;;;;;;;29.50;27.75;;;;;18.82;39.86;101139.44;5014184;28;8857;-78
2021/04/19 12:38:22;;;;;;;;;32.50;31.75;;;;;18.92;40.71;101135.16;5013549;28;8962;-78
2021/04/19 12:41:18;;;;;;;;;28.50;27.75;;;;;18.98;40.50;101132.84;5013585;28;8873;-79
2021/04/19 14:36:44;;;;;;;;;48.00;39.25;;;;;17.69;41.38;101112.94;4967359;28;9286;-78
2021/04/19 14:39:40;;;;;;;;;53.50;43.50;;;;;17.81;40.91;101110.03;4965187;28;9631;-77
2021/04/19 14:42:36;;;;;;;;;57.50;41.50;;;;;17.81;40.99;101114.81;4978049;28;9829;-77
2021/04/19 14:45:32;;;;;;;;;44.75;37.50;;;;;17.75;41.47;101112.28;4989005;28;9728;-78
2021/04/19 14:48:29;;;;;;;;;45.00;38.00;;;;;17.62;41.48;101110.00;4985930;28;9958;-78
2021/04/19 14:51:26;;;;;;;;;35.67;34.00;;;;;17.72;41.19;101101.06;4988892;28;9602;-76
2021/04/19 14:54:27;;;;;;;;;47.75;39.50;;;;;17.83;40.88;101098.44;4974939;28;9322;-76
2021/04/19 14:57:26;;;;;;;;;48.00;39.50;;;;;17.65;40.89;101100.88;4977595;28;9774;-75
2021/04/19 15:00:24;;;;;;;;;43.67;37.67;;;;;17.69;40.96;101101.75;4977474;28;9653;-75
2021/04/19 15:03:22;;;;;;;;;39.00;35.67;;;;;17.75;40.84;101095.50;4973038;28;9359;-75
2021/04/19 15:06:17;;;;;;;;;33.67;33.00;;;;;17.69;40.61;101098.94;4975538;28;9524;-75